createdAt,value
2023-05-14T00:00:46.557Z,1009.27
2023-05-14T00:01:46.555Z,1009.28
2023-05-14T00:02:46.647Z,1009.26
2023-05-14T00:03:46.614Z,1009.22
2023-05-14T00:04:46.534Z,1009.25
2023-05-14T00:05:46.556Z,1009.20
2023-05-14T00:06:46.516Z,1009.19
2023-05-14T00:07:46.491Z,1009.20
2023-05-14T00:08:46.486Z,1009.20
2023-05-14T00:09:46.480Z,1009.23
2023-05-14T00:10:46.463Z,1009.21
2023-05-14T00:11:46.478Z,1009.19
2023-05-14T00:12:46.439Z,1009.17
2023-05-14T00:13:46.445Z,1009.17
2023-05-14T00:14:46.429Z,1009.17
2023-05-14T00:15:46.453Z,1009.12
2023-05-14T00:16:46.403Z,1009.12
2023-05-14T00:17:46.532Z,1009.13
2023-05-14T00:18:46.407Z,1009.10
2023-05-14T00:19:46.369Z,1009.13
2023-05-14T00:20:46.373Z,1009.14
2023-05-14T00:21:46.354Z,1009.17
2023-05-14T00:22:46.337Z,1009.15
2023-05-14T00:23:46.362Z,1009.14
2023-05-14T00:24:46.325Z,1009.16
2023-05-14T00:25:46.315Z,1009.11
2023-05-14T00:26:46.318Z,1009.14
2023-05-14T00:27:46.285Z,1009.11
2023-05-14T00:28:46.273Z,1009.14
2023-05-14T00:29:46.306Z,1009.15
2023-05-14T00:30:46.257Z,1009.12
2023-05-14T00:31:46.395Z,1009.14
2023-05-14T00:32:46.278Z,1009.12
2023-05-14T00:33:46.257Z,1009.16
2023-05-14T00:34:46.227Z,1009.08
2023-05-14T00:35:46.252Z,1009.11
2023-05-14T00:36:46.197Z,1009.19
2023-05-14T00:37:46.191Z,1009.16
2023-05-14T00:38:46.185Z,1009.15
2023-05-14T00:39:46.176Z,1009.12
2023-05-14T00:40:46.160Z,1009.12
2023-05-14T00:41:46.170Z,1009.12
2023-05-14T00:42:46.141Z,1009.10
2023-05-14T00:43:46.130Z,1009.13
2023-05-14T00:44:46.135Z,1009.10
2023-05-14T00:45:46.119Z,1009.08
2023-05-14T00:46:46.160Z,1009.06
2023-05-14T00:47:46.133Z,1009.06
2023-05-14T00:48:46.102Z,1009.06
2023-05-14T00:49:46.073Z,1009.08
2023-05-14T00:50:46.059Z,1009.09
2023-05-14T00:51:46.056Z,1009.05
2023-05-14T00:52:47.869Z,1009.06
2023-05-14T00:53:46.051Z,1009.05
2023-05-14T00:54:46.027Z,1009.06
2023-05-14T00:55:46.016Z,1009.09
2023-05-14T00:56:45.996Z,1009.04
2023-05-14T00:57:45.997Z,1009.06
2023-05-14T00:58:46.007Z,1009.03
2023-05-14T00:59:46.184Z,1009.06
2023-05-14T01:00:45.995Z,1009.01
2023-05-14T01:01:45.959Z,1008.98
2023-05-14T01:02:45.969Z,1009.00
2023-05-14T01:03:46.134Z,1009.01
2023-05-14T01:04:45.925Z,1008.95
2023-05-14T01:05:45.933Z,1008.97
2023-05-14T01:06:45.906Z,1009.02
2023-05-14T01:07:45.887Z,1008.99
2023-05-14T01:08:45.878Z,1008.97
2023-05-14T01:09:45.897Z,1008.98
2023-05-14T01:10:45.854Z,1008.97
2023-05-14T01:11:45.905Z,1009.01
2023-05-14T01:12:45.831Z,1008.95
2023-05-14T01:13:45.825Z,1008.97
2023-05-14T01:14:45.817Z,1008.99
2023-05-14T01:15:45.808Z,1008.99
2023-05-14T01:16:45.849Z,1009.01
2023-05-14T01:17:45.844Z,1009.00
2023-05-14T01:18:45.803Z,1009.03
2023-05-14T01:19:45.767Z,1009.04
2023-05-14T01:20:45.744Z,1008.99
2023-05-14T01:21:45.739Z,1008.94
2023-05-14T01:22:45.729Z,1009.00
2023-05-14T01:23:45.836Z,1008.99
2023-05-14T01:24:45.707Z,1009.01
2023-05-14T01:25:45.694Z,1008.97
2023-05-14T01:26:45.678Z,1009.01
2023-05-14T01:27:45.681Z,1009.01
2023-05-14T01:28:45.654Z,1009.00
2023-05-14T01:29:45.688Z,1008.97
2023-05-14T01:30:45.643Z,1009.00
2023-05-14T01:31:45.709Z,1008.96
2023-05-14T01:32:45.647Z,1008.99
2023-05-14T01:33:45.618Z,1008.99
2023-05-14T01:34:45.595Z,1009.02
2023-05-14T01:35:45.661Z,1009.01
2023-05-14T01:36:45.587Z,1008.98
2023-05-14T01:37:45.566Z,1008.98
2023-05-14T01:38:45.649Z,1009.00
2023-05-14T01:39:45.567Z,1009.01
2023-05-14T01:40:45.541Z,1008.96
2023-05-14T01:41:45.564Z,1009.02
2023-05-14T01:42:45.527Z,1009.02
2023-05-14T01:43:45.507Z,1009.00
2023-05-14T01:44:45.516Z,1009.06
2023-05-14T01:45:45.501Z,1009.04
2023-05-14T01:46:45.486Z,1009.06
2023-05-14T01:47:45.562Z,1009.02
2023-05-14T01:48:45.476Z,1009.08
2023-05-14T01:49:45.450Z,1009.08
2023-05-14T01:50:45.437Z,1009.08
2023-05-14T01:51:45.440Z,1009.09
2023-05-14T01:52:45.416Z,1009.06
2023-05-14T01:53:45.452Z,1009.09
2023-05-14T01:54:45.400Z,1009.04
2023-05-14T01:55:45.393Z,1009.13
2023-05-14T01:56:45.377Z,1009.08
2023-05-14T01:57:45.322Z,1009.10
2023-05-14T01:58:45.308Z,1009.10
2023-05-14T01:59:45.319Z,1009.10
2023-05-14T02:00:45.287Z,1009.12
2023-05-14T02:01:45.345Z,1009.09
2023-05-14T02:02:45.301Z,1009.11
2023-05-14T02:03:45.311Z,1009.09
2023-05-14T02:04:45.249Z,1009.08
2023-05-14T02:05:45.268Z,1009.10
2023-05-14T02:06:45.238Z,1009.04
2023-05-14T02:07:45.230Z,1009.05
2023-05-14T02:08:45.207Z,1009.06
2023-05-14T02:09:45.200Z,1009.03
2023-05-14T02:10:45.175Z,1009.04
2023-05-14T02:11:45.200Z,1009.09
2023-05-14T02:12:45.162Z,1009.09
2023-05-14T02:13:45.162Z,1009.06
2023-05-14T02:14:45.140Z,1009.04
2023-05-14T02:15:45.205Z,1009.04
2023-05-14T02:16:45.123Z,1009.05
2023-05-14T02:17:45.187Z,1009.03
2023-05-14T02:18:45.162Z,1009.08
2023-05-14T02:19:45.102Z,1009.04
2023-05-14T02:20:45.112Z,1009.01
2023-05-14T02:21:45.074Z,1009.05
2023-05-14T02:22:45.059Z,1009.03
2023-05-14T02:23:45.074Z,1009.02
2023-05-14T02:24:45.054Z,1009.05
2023-05-14T02:25:45.033Z,1009.04
2023-05-14T02:26:45.024Z,1009.04
2023-05-14T02:27:45.012Z,1008.97
2023-05-14T02:28:44.999Z,1008.98
2023-05-14T02:29:45.036Z,1008.95
2023-05-14T02:30:44.986Z,1008.95
2023-05-14T02:31:45.008Z,1008.95
2023-05-14T02:32:45.059Z,1008.97
2023-05-14T02:33:44.956Z,1009.00
2023-05-14T02:34:44.933Z,1008.94
2023-05-14T02:35:44.945Z,1008.91
2023-05-14T02:36:44.920Z,1008.93
2023-05-14T02:37:44.899Z,1008.92
2023-05-14T02:38:44.897Z,1008.94
2023-05-14T02:39:44.903Z,1008.94
2023-05-14T02:40:44.876Z,1008.97
2023-05-14T02:41:44.894Z,1008.95
2023-05-14T02:42:44.866Z,1008.98
2023-05-14T02:43:44.854Z,1008.96
2023-05-14T02:44:44.832Z,1008.96
2023-05-14T02:45:44.860Z,1008.93
2023-05-14T02:46:44.829Z,1008.96
2023-05-14T02:47:44.848Z,1008.99
2023-05-14T02:48:44.801Z,1008.95
2023-05-14T02:49:44.781Z,1009.02
2023-05-14T02:50:44.766Z,1009.00
2023-05-14T02:51:44.789Z,1009.01
2023-05-14T02:52:44.759Z,1008.96
2023-05-14T02:53:44.780Z,1008.96
2023-05-14T02:54:44.732Z,1008.97
2023-05-14T02:55:44.727Z,1009.00
2023-05-14T02:56:44.711Z,1009.03
2023-05-14T02:57:44.712Z,1008.99
2023-05-14T02:58:44.694Z,1008.97
2023-05-14T02:59:44.743Z,1008.99
2023-05-14T03:00:44.702Z,1008.98
2023-05-14T03:01:44.696Z,1008.95
2023-05-14T03:02:44.776Z,1008.93
2023-05-14T03:03:44.645Z,1008.98
2023-05-14T03:04:44.649Z,1008.97
2023-05-14T03:05:44.645Z,1008.90
2023-05-14T03:06:44.617Z,1008.93
2023-05-14T03:07:44.616Z,1008.91
2023-05-14T03:08:44.593Z,1008.91
2023-05-14T03:09:44.588Z,1008.91
2023-05-14T03:10:44.575Z,1008.85
2023-05-14T03:11:44.595Z,1008.86
2023-05-14T03:12:44.557Z,1008.87
2023-05-14T03:13:44.543Z,1008.83
2023-05-14T03:14:44.534Z,1008.86
2023-05-14T03:15:44.566Z,1008.85
2023-05-14T03:16:44.590Z,1008.86
2023-05-14T03:17:44.553Z,1008.84
2023-05-14T03:18:44.514Z,1008.89
2023-05-14T03:19:44.493Z,1008.91
2023-05-14T03:20:44.476Z,1008.89
2023-05-14T03:21:44.475Z,1008.89
2023-05-14T03:22:44.445Z,1008.87
2023-05-14T03:23:44.472Z,1008.90
2023-05-14T03:24:44.440Z,1008.87
2023-05-14T03:25:44.423Z,1008.91
2023-05-14T03:26:44.413Z,1008.83
2023-05-14T03:27:44.405Z,1008.88
2023-05-14T03:28:44.399Z,1008.90
2023-05-14T03:29:44.409Z,1008.88
2023-05-14T03:30:44.487Z,1008.88
2023-05-14T03:31:44.371Z,1008.93
2023-05-14T03:32:44.377Z,1008.87
2023-05-14T03:33:44.334Z,1008.89
2023-05-14T03:34:44.330Z,1008.89
2023-05-14T03:35:44.345Z,1008.87
2023-05-14T03:36:44.314Z,1008.85
2023-05-14T03:37:44.313Z,1008.90
2023-05-14T03:38:44.282Z,1008.87
2023-05-14T03:39:44.290Z,1008.83
2023-05-14T03:40:44.276Z,1008.81
2023-05-14T03:41:44.290Z,1008.81
2023-05-14T03:42:44.246Z,1008.81
2023-05-14T03:43:44.239Z,1008.82
2023-05-14T03:44:44.222Z,1008.88
2023-05-14T03:45:44.238Z,1008.82
2023-05-14T03:46:44.207Z,1008.84
2023-05-14T03:47:44.286Z,1008.81
2023-05-14T03:48:44.251Z,1008.87
2023-05-14T03:49:44.178Z,1008.89
2023-05-14T03:50:44.165Z,1008.85
2023-05-14T03:51:44.158Z,1008.87
2023-05-14T03:52:44.164Z,1008.85
2023-05-14T03:53:44.358Z,1008.86
2023-05-14T03:54:44.149Z,1008.87
2023-05-14T03:55:44.122Z,1008.86
2023-05-14T03:56:44.105Z,1008.87
2023-05-14T03:57:44.094Z,1008.87
2023-05-14T03:58:44.088Z,1008.88
2023-05-14T03:59:44.109Z,1008.84
2023-05-14T04:00:44.070Z,1008.82
2023-05-14T04:01:44.063Z,1008.85
2023-05-14T04:02:44.111Z,1008.85
2023-05-14T04:03:44.216Z,1008.83
2023-05-14T04:04:44.082Z,1008.83
2023-05-14T04:05:44.049Z,1008.86
2023-05-14T04:06:44.025Z,1008.82
2023-05-14T04:07:43.994Z,1008.82
2023-05-14T04:08:43.998Z,1008.80
2023-05-14T04:09:43.979Z,1008.76
2023-05-14T04:10:43.968Z,1008.78
2023-05-14T04:11:44.758Z,1008.75
2023-05-14T04:12:43.948Z,1008.76
2023-05-14T04:13:43.939Z,1008.80
2023-05-14T04:14:43.939Z,1008.80
2023-05-14T04:15:43.910Z,1008.79
2023-05-14T04:16:43.998Z,1008.83
2023-05-14T04:17:43.973Z,1008.80
2023-05-14T04:18:43.950Z,1008.82
2023-05-14T04:19:43.875Z,1008.79
2023-05-14T04:20:43.870Z,1008.75
2023-05-14T04:21:43.864Z,1008.77
2023-05-14T04:22:43.860Z,1008.81
2023-05-14T04:23:43.872Z,1008.78
2023-05-14T04:24:43.825Z,1008.79
2023-05-14T04:25:43.815Z,1008.79
2023-05-14T04:26:43.804Z,1008.79
2023-05-14T04:27:43.805Z,1008.80
2023-05-14T04:28:43.781Z,1008.77
2023-05-14T04:29:43.785Z,1008.84
2023-05-14T04:30:43.765Z,1008.82
2023-05-14T04:31:43.762Z,1008.77
2023-05-14T04:32:43.772Z,1008.81
2023-05-14T04:33:43.732Z,1008.85
2023-05-14T04:34:43.722Z,1008.89
2023-05-14T04:35:43.735Z,1008.94
2023-05-14T04:36:43.694Z,1008.95
2023-05-14T04:37:43.682Z,1009.00
2023-05-14T04:38:43.675Z,1008.94
2023-05-14T04:39:43.712Z,1008.92
2023-05-14T04:40:43.659Z,1008.87
2023-05-14T04:41:43.673Z,1008.92
2023-05-14T04:42:43.631Z,1008.90
2023-05-14T04:43:43.615Z,1008.94
2023-05-14T04:44:43.613Z,1008.95
2023-05-14T04:45:43.610Z,1008.96
2023-05-14T04:46:43.594Z,1008.92
2023-05-14T04:47:43.654Z,1008.92
2023-05-14T04:48:43.569Z,1008.86
2023-05-14T04:49:43.571Z,1008.85
2023-05-14T04:50:43.559Z,1008.89
2023-05-14T04:51:43.550Z,1008.94
2023-05-14T04:52:43.535Z,1008.91
2023-05-14T04:53:43.731Z,1008.91
2023-05-14T04:54:43.565Z,1008.92
2023-05-14T04:55:43.492Z,1008.92
2023-05-14T04:56:43.502Z,1008.90
2023-05-14T04:57:43.473Z,1008.89
2023-05-14T04:58:43.479Z,1008.91
2023-05-14T04:59:43.484Z,1008.90
2023-05-14T05:00:43.447Z,1008.86
2023-05-14T05:01:43.568Z,1008.87
2023-05-14T05:02:43.464Z,1008.88
2023-05-14T05:03:43.506Z,1008.89
2023-05-14T05:04:43.412Z,1008.87
2023-05-14T05:05:43.427Z,1008.84
2023-05-14T05:06:43.383Z,1008.82
2023-05-14T05:07:43.382Z,1008.88
2023-05-14T05:08:43.379Z,1008.89
2023-05-14T05:09:43.352Z,1008.89
2023-05-14T05:10:43.352Z,1008.88
2023-05-14T05:11:43.366Z,1008.82
2023-05-14T05:12:43.335Z,1008.87
2023-05-14T05:13:43.330Z,1008.77
2023-05-14T05:14:43.339Z,1008.78
2023-05-14T05:15:43.329Z,1008.80
2023-05-14T05:16:43.287Z,1008.81
2023-05-14T05:17:43.347Z,1008.84
2023-05-14T05:18:43.338Z,1008.84
2023-05-14T05:19:44.426Z,1008.85
2023-05-14T05:20:43.250Z,1008.81
2023-05-14T05:21:43.239Z,1008.86
2023-05-14T05:22:43.235Z,1008.87
2023-05-14T05:23:43.240Z,1008.89
2023-05-14T05:24:43.220Z,1008.85
2023-05-14T05:25:43.202Z,1008.86
2023-05-14T05:26:43.190Z,1008.86
2023-05-14T05:27:43.173Z,1008.81
2023-05-14T05:28:43.171Z,1008.86
2023-05-14T05:29:43.234Z,1008.80
2023-05-14T05:30:43.150Z,1008.75
2023-05-14T05:31:43.184Z,1008.76
2023-05-14T05:32:43.179Z,1008.73
2023-05-14T05:33:43.123Z,1008.76
2023-05-14T05:34:43.106Z,1008.76
2023-05-14T05:35:43.118Z,1008.74
2023-05-14T05:36:43.094Z,1008.70
2023-05-14T05:37:43.097Z,1008.71
2023-05-14T05:38:43.080Z,1008.70
2023-05-14T05:39:43.062Z,1008.72
2023-05-14T05:40:43.061Z,1008.72
2023-05-14T05:41:43.073Z,1008.78
2023-05-14T05:42:43.027Z,1008.76
2023-05-14T05:43:43.005Z,1008.73
2023-05-14T05:44:43.003Z,1008.76
2023-05-14T05:45:42.991Z,1008.79
2023-05-14T05:46:43.045Z,1008.78
2023-05-14T05:47:43.038Z,1008.69
2023-05-14T05:48:42.965Z,1008.69
2023-05-14T05:49:42.950Z,1008.69
2023-05-14T05:50:42.945Z,1008.64
2023-05-14T05:51:42.923Z,1008.67
2023-05-14T05:52:42.912Z,1008.66
2023-05-14T05:53:42.940Z,1008.69
2023-05-14T05:54:42.902Z,1008.71
2023-05-14T05:55:42.893Z,1008.69
2023-05-14T05:56:42.897Z,1008.72
2023-05-14T05:57:42.864Z,1008.69
2023-05-14T05:58:42.858Z,1008.74
2023-05-14T05:59:42.870Z,1008.69
2023-05-14T06:00:42.837Z,1008.71
2023-05-14T06:01:42.874Z,1008.72
2023-05-14T06:02:43.035Z,1008.67
2023-05-14T06:03:42.815Z,1008.70
2023-05-14T06:04:42.809Z,1008.71
2023-05-14T06:05:42.875Z,1008.71
2023-05-14T06:06:42.772Z,1008.65
2023-05-14T06:07:42.771Z,1008.67
2023-05-14T06:08:42.767Z,1008.65
2023-05-14T06:09:42.749Z,1008.64
2023-05-14T06:10:42.732Z,1008.66
2023-05-14T06:11:42.742Z,1008.67
2023-05-14T06:12:42.718Z,1008.66
2023-05-14T06:13:42.689Z,1008.72
2023-05-14T06:14:42.685Z,1008.72
2023-05-14T06:15:42.674Z,1008.67
2023-05-14T06:16:42.766Z,1008.65
2023-05-14T06:17:42.745Z,1008.62
2023-05-14T06:18:42.675Z,1008.67
2023-05-14T06:19:42.636Z,1008.68
2023-05-14T06:20:42.639Z,1008.71
2023-05-14T06:21:42.613Z,1008.69
2023-05-14T06:22:42.610Z,1008.67
2023-05-14T06:23:42.626Z,1008.66
2023-05-14T06:24:42.594Z,1008.70
2023-05-14T06:25:42.574Z,1008.69
2023-05-14T06:26:42.564Z,1008.64
2023-05-14T06:27:42.557Z,1008.63
2023-05-14T06:28:42.557Z,1008.66
2023-05-14T06:29:42.614Z,1008.61
2023-05-14T06:30:42.520Z,1008.63
2023-05-14T06:31:42.556Z,1008.65
2023-05-14T06:32:42.544Z,1008.63
2023-05-14T06:33:42.486Z,1008.64
2023-05-14T06:34:42.483Z,1008.59
2023-05-14T06:35:42.487Z,1008.57
2023-05-14T06:36:42.467Z,1008.58
2023-05-14T06:37:42.450Z,1008.60
2023-05-14T06:38:42.441Z,1008.56
2023-05-14T06:39:42.430Z,1008.55
2023-05-14T06:40:42.440Z,1008.57
2023-05-14T06:41:42.431Z,1008.63
2023-05-14T06:42:42.392Z,1008.60
2023-05-14T06:43:42.386Z,1008.56
2023-05-14T06:44:42.373Z,1008.58
2023-05-14T06:45:42.369Z,1008.53
2023-05-14T06:46:42.361Z,1008.56
2023-05-14T06:47:42.398Z,1008.50
2023-05-14T06:48:42.389Z,1008.49
2023-05-14T06:49:42.317Z,1008.50
2023-05-14T06:50:42.314Z,1008.52
2023-05-14T06:51:42.307Z,1008.50
2023-05-14T06:52:42.285Z,1008.50
2023-05-14T06:53:42.724Z,1008.52
2023-05-14T06:54:42.279Z,1008.45
2023-05-14T06:55:42.284Z,1008.44
2023-05-14T06:56:42.251Z,1008.48
2023-05-14T06:57:42.249Z,1008.41
2023-05-14T06:58:42.238Z,1008.37
2023-05-14T06:59:42.251Z,1008.37
2023-05-14T07:00:42.215Z,1008.36
2023-05-14T07:01:42.248Z,1008.34
2023-05-14T07:02:42.207Z,1008.38
2023-05-14T07:03:42.196Z,1008.35
2023-05-14T07:04:42.321Z,1008.39
2023-05-14T07:05:42.188Z,1008.37
2023-05-14T07:06:42.173Z,1008.36
2023-05-14T07:07:42.146Z,1008.33
2023-05-14T07:08:42.148Z,1008.33
2023-05-14T07:09:42.119Z,1008.31
2023-05-14T07:10:42.120Z,1008.30
2023-05-14T07:11:42.135Z,1008.32
2023-05-14T07:12:42.096Z,1008.33
2023-05-14T07:13:42.097Z,1008.35
2023-05-14T07:14:42.069Z,1008.35
2023-05-14T07:15:42.054Z,1008.32
2023-05-14T07:16:42.082Z,1008.33
2023-05-14T07:17:42.093Z,1008.30
2023-05-14T07:18:42.063Z,1008.31
2023-05-14T07:19:42.013Z,1008.25
2023-05-14T07:20:42.003Z,1008.26
2023-05-14T07:21:41.994Z,1008.26
2023-05-14T07:22:41.995Z,1008.26
2023-05-14T07:23:42.003Z,1008.29
2023-05-14T07:24:41.966Z,1008.28
2023-05-14T07:25:41.954Z,1008.29
2023-05-14T07:26:41.942Z,1008.29
2023-05-14T07:27:41.938Z,1008.20
2023-05-14T07:28:41.928Z,1008.26
2023-05-14T07:29:41.936Z,1008.25
2023-05-14T07:30:41.906Z,1008.23
2023-05-14T07:31:41.910Z,1008.25
2023-05-14T07:32:41.892Z,1008.28
2023-05-14T07:33:41.869Z,1008.23
2023-05-14T07:34:41.855Z,1008.20
2023-05-14T07:35:41.888Z,1008.22
2023-05-14T07:36:41.830Z,1008.20
2023-05-14T07:37:41.822Z,1008.23
2023-05-14T07:38:41.828Z,1008.16
2023-05-14T07:39:41.813Z,1008.15
2023-05-14T07:40:41.802Z,1008.16
2023-05-14T07:41:41.806Z,1008.12
2023-05-14T07:42:41.767Z,1008.12
2023-05-14T07:43:41.765Z,1008.10
2023-05-14T07:44:41.749Z,1008.08
2023-05-14T07:45:41.738Z,1008.12
2023-05-14T07:46:41.730Z,1008.10
2023-05-14T07:47:41.838Z,1008.11
2023-05-14T07:48:41.775Z,1008.08
2023-05-14T07:49:41.695Z,1008.09
2023-05-14T07:50:41.691Z,1008.06
2023-05-14T07:51:41.680Z,1008.08
2023-05-14T07:52:41.673Z,1008.08
2023-05-14T07:53:41.685Z,1008.06
2023-05-14T07:54:41.655Z,1008.07
2023-05-14T07:55:41.644Z,1008.01
2023-05-14T07:56:41.637Z,1007.99
2023-05-14T07:57:41.623Z,1007.96
2023-05-14T07:58:41.627Z,1007.99
2023-05-14T07:59:41.634Z,1008.01
2023-05-14T08:00:41.587Z,1007.99
2023-05-14T08:01:41.613Z,1007.99
2023-05-14T08:02:41.625Z,1007.96
2023-05-14T08:03:41.649Z,1007.95
2023-05-14T08:04:41.550Z,1007.94
2023-05-14T08:05:41.579Z,1007.95
2023-05-14T08:06:41.529Z,1007.97
2023-05-14T08:07:41.529Z,1007.91
2023-05-14T08:08:41.516Z,1007.97
2023-05-14T08:09:41.495Z,1007.92
2023-05-14T08:10:41.497Z,1007.93
2023-05-14T08:11:41.501Z,1007.95
2023-05-14T08:12:41.468Z,1007.94
2023-05-14T08:13:41.459Z,1007.96
2023-05-14T08:14:41.448Z,1007.95
2023-05-14T08:15:41.441Z,1007.91
2023-05-14T08:16:41.455Z,1007.86
2023-05-14T08:17:41.515Z,1007.89
2023-05-14T08:18:41.422Z,1007.87
2023-05-14T08:19:41.398Z,1007.85
2023-05-14T08:20:41.394Z,1007.86
2023-05-14T08:21:41.377Z,1007.88
2023-05-14T08:22:41.400Z,1007.88
2023-05-14T08:23:41.403Z,1007.82
2023-05-14T08:24:41.348Z,1007.82
2023-05-14T08:25:41.354Z,1007.86
2023-05-14T08:26:41.329Z,1007.89
2023-05-14T08:27:41.313Z,1007.82
2023-05-14T08:28:41.295Z,1007.78
2023-05-14T08:29:41.562Z,1007.78
2023-05-14T08:30:41.313Z,1007.82
2023-05-14T08:31:41.280Z,1007.78
2023-05-14T08:32:41.300Z,1007.80
2023-05-14T08:33:41.257Z,1007.79
2023-05-14T08:34:42.808Z,1007.79
2023-05-14T08:35:41.277Z,1007.80
2023-05-14T08:36:41.216Z,1007.77
2023-05-14T08:37:41.224Z,1007.75
2023-05-14T08:38:41.191Z,1007.78
2023-05-14T08:39:41.186Z,1007.72
2023-05-14T08:40:41.184Z,1007.80
2023-05-14T08:41:41.254Z,1007.74
2023-05-14T08:42:41.171Z,1007.72
2023-05-14T08:43:41.149Z,1007.68
2023-05-14T08:44:41.124Z,1007.68
2023-05-14T08:45:41.119Z,1007.71
2023-05-14T08:46:41.107Z,1007.71
2023-05-14T08:47:41.138Z,1007.67
2023-05-14T08:48:41.123Z,1007.63
2023-05-14T08:49:41.105Z,1007.64
2023-05-14T08:50:41.068Z,1007.65
2023-05-14T08:51:41.063Z,1007.64
2023-05-14T08:52:41.042Z,1007.65
2023-05-14T08:53:41.052Z,1007.65
2023-05-14T08:54:41.012Z,1007.67
2023-05-14T08:55:41.018Z,1007.68
2023-05-14T08:56:41.005Z,1007.70
2023-05-14T08:57:41.001Z,1007.66
2023-05-14T08:58:40.985Z,1007.60
2023-05-14T08:59:40.995Z,1007.64
2023-05-14T09:00:40.961Z,1007.62
2023-05-14T09:01:41.006Z,1007.63
2023-05-14T09:02:41.078Z,1007.67
2023-05-14T09:03:40.958Z,1007.66
2023-05-14T09:04:40.920Z,1007.61
2023-05-14T09:05:40.937Z,1007.61
2023-05-14T09:06:40.898Z,1007.58
2023-05-14T09:07:40.907Z,1007.53
2023-05-14T09:08:40.884Z,1007.52
2023-05-14T09:09:40.901Z,1007.55
2023-05-14T09:10:40.863Z,1007.52
2023-05-14T09:11:40.884Z,1007.54
2023-05-14T09:12:40.858Z,1007.55
2023-05-14T09:13:40.831Z,1007.46
2023-05-14T09:14:40.822Z,1007.49
2023-05-14T09:15:40.814Z,1007.46
2023-05-14T09:16:40.820Z,1007.42
2023-05-14T09:17:40.980Z,1007.45
2023-05-14T09:18:40.863Z,1007.42
2023-05-14T09:19:40.783Z,1007.40
2023-05-14T09:20:40.769Z,1007.40
2023-05-14T09:21:40.755Z,1007.37
2023-05-14T09:22:40.751Z,1007.38
2023-05-14T09:23:40.755Z,1007.38
2023-05-14T09:24:40.732Z,1007.40
2023-05-14T09:25:40.718Z,1007.34
2023-05-14T09:26:40.696Z,1007.34
2023-05-14T09:27:40.685Z,1007.32
2023-05-14T09:28:40.675Z,1007.33
2023-05-14T09:29:40.701Z,1007.26
2023-05-14T09:30:40.664Z,1007.25
2023-05-14T09:31:40.659Z,1007.23
2023-05-14T09:32:40.694Z,1007.21
2023-05-14T09:33:40.631Z,1007.25
2023-05-14T09:34:40.618Z,1007.27
2023-05-14T09:35:40.630Z,1007.25
2023-05-14T09:36:40.600Z,1007.25
2023-05-14T09:37:40.591Z,1007.24
2023-05-14T09:38:40.581Z,1007.29
2023-05-14T09:39:40.566Z,1007.21
2023-05-14T09:40:40.551Z,1007.17
2023-05-14T09:41:40.597Z,1007.18
2023-05-14T09:42:40.541Z,1007.17
2023-05-14T09:43:40.532Z,1007.09
2023-05-14T09:44:40.511Z,1007.09
2023-05-14T09:45:40.512Z,1007.09
2023-05-14T09:46:40.498Z,1007.10
2023-05-14T09:47:40.591Z,1007.11
2023-05-14T09:48:40.531Z,1007.10
2023-05-14T09:49:40.472Z,1007.10
2023-05-14T09:50:40.452Z,1007.13
2023-05-14T09:51:40.455Z,1007.09
2023-05-14T09:52:40.432Z,1007.10
2023-05-14T09:53:40.500Z,1007.08
2023-05-14T09:54:40.411Z,1007.09
2023-05-14T09:55:40.407Z,1007.11
2023-05-14T09:56:40.400Z,1007.12
2023-05-14T09:57:40.388Z,1007.10
2023-05-14T09:58:40.379Z,1007.10
2023-05-14T09:59:40.395Z,1007.13
2023-05-14T10:00:40.354Z,1007.05
2023-05-14T10:01:40.402Z,1007.12
2023-05-14T10:02:40.387Z,1007.09
2023-05-14T10:03:40.325Z,1007.13
2023-05-14T10:04:40.380Z,1007.09
2023-05-14T10:05:40.333Z,1007.05
2023-05-14T10:06:40.291Z,1007.07
2023-05-14T10:07:40.289Z,1007.09
2023-05-14T10:08:40.280Z,1007.03
2023-05-14T10:09:40.267Z,1007.03
2023-05-14T10:10:40.262Z,1007.01
2023-05-14T10:11:40.271Z,1006.98
2023-05-14T10:12:40.248Z,1006.97
2023-05-14T10:13:40.236Z,1006.98
2023-05-14T10:14:40.223Z,1006.97
2023-05-14T10:15:40.225Z,1006.87
2023-05-14T10:16:40.231Z,1006.89
2023-05-14T10:17:40.259Z,1006.91
2023-05-14T10:18:40.230Z,1006.85
2023-05-14T10:19:40.180Z,1006.92
2023-05-14T10:20:40.163Z,1006.91
2023-05-14T10:21:40.151Z,1006.92
2023-05-14T10:22:40.139Z,1006.92
2023-05-14T10:23:40.154Z,1006.91
2023-05-14T10:24:40.114Z,1006.92
2023-05-14T10:25:40.120Z,1006.85
2023-05-14T10:26:40.104Z,1006.87
2023-05-14T10:27:40.090Z,1006.83
2023-05-14T10:28:40.082Z,1006.83
2023-05-14T10:29:40.086Z,1006.85
2023-05-14T10:30:40.052Z,1006.83
2023-05-14T10:31:40.184Z,1006.85
2023-05-14T10:32:40.051Z,1006.84
2023-05-14T10:33:40.035Z,1006.88
2023-05-14T10:34:40.015Z,1006.84
2023-05-14T10:35:40.026Z,1006.81
2023-05-14T10:36:39.991Z,1006.81
2023-05-14T10:37:39.982Z,1006.80
2023-05-14T10:38:39.983Z,1006.81
2023-05-14T10:39:39.960Z,1006.72
2023-05-14T10:40:39.951Z,1006.79
2023-05-14T10:41:39.963Z,1006.78
2023-05-14T10:42:39.940Z,1006.78
2023-05-14T10:43:39.921Z,1006.79
2023-05-14T10:44:39.914Z,1006.77
2023-05-14T10:45:39.900Z,1006.77
2023-05-14T10:46:39.944Z,1006.74
2023-05-14T10:47:40.008Z,1006.68
2023-05-14T10:48:39.878Z,1006.75
2023-05-14T10:49:43.510Z,1006.75
2023-05-14T10:50:39.877Z,1006.67
2023-05-14T10:51:39.871Z,1006.66
2023-05-14T10:52:39.836Z,1006.68
2023-05-14T10:53:39.847Z,1006.72
2023-05-14T10:54:39.859Z,1006.74
2023-05-14T10:55:39.807Z,1006.70
2023-05-14T10:56:39.792Z,1006.67
2023-05-14T10:57:39.806Z,1006.64
2023-05-14T10:58:39.782Z,1006.64
2023-05-14T10:59:39.795Z,1006.63
2023-05-14T11:00:39.757Z,1006.65
2023-05-14T11:01:39.752Z,1006.62
2023-05-14T11:02:39.781Z,1006.66
2023-05-14T11:03:39.784Z,1006.70
2023-05-14T11:04:39.729Z,1006.71
2023-05-14T11:05:39.733Z,1006.64
2023-05-14T11:06:39.707Z,1006.62
2023-05-14T11:07:39.691Z,1006.66
2023-05-14T11:08:39.723Z,1006.67
2023-05-14T11:09:39.677Z,1006.59
2023-05-14T11:10:39.671Z,1006.53
2023-05-14T11:11:39.687Z,1006.54
2023-05-14T11:12:39.643Z,1006.56
2023-05-14T11:13:39.640Z,1006.55
2023-05-14T11:14:39.625Z,1006.55
2023-05-14T11:15:39.624Z,1006.57
2023-05-14T11:16:39.608Z,1006.58
2023-05-14T11:17:39.678Z,1006.54
2023-05-14T11:18:39.610Z,1006.55
2023-05-14T11:19:39.581Z,1006.52
2023-05-14T11:20:39.564Z,1006.53
2023-05-14T11:21:39.601Z,1006.58
2023-05-14T11:22:39.538Z,1006.57
2023-05-14T11:23:39.571Z,1006.53
2023-05-14T11:24:39.535Z,1006.52
2023-05-14T11:25:39.516Z,1006.55
2023-05-14T11:26:39.566Z,1006.47
2023-05-14T11:27:39.521Z,1006.49
2023-05-14T11:28:39.480Z,1006.42
2023-05-14T11:29:39.502Z,1006.47
2023-05-14T11:30:39.458Z,1006.43
2023-05-14T11:31:39.513Z,1006.39
2023-05-14T11:32:39.499Z,1006.35
2023-05-14T11:33:39.434Z,1006.40
2023-05-14T11:34:39.424Z,1006.42
2023-05-14T11:35:39.442Z,1006.42
2023-05-14T11:36:39.404Z,1006.37
2023-05-14T11:37:39.399Z,1006.34
2023-05-14T11:38:39.389Z,1006.33
2023-05-14T11:39:39.374Z,1006.36
2023-05-14T11:40:39.382Z,1006.36
2023-05-14T11:41:39.375Z,1006.39
2023-05-14T11:42:39.348Z,1006.35
2023-05-14T11:43:39.366Z,1006.31
2023-05-14T11:44:39.316Z,1006.33
2023-05-14T11:45:39.328Z,1006.32
2023-05-14T11:46:39.351Z,1006.33
2023-05-14T11:47:39.380Z,1006.33
2023-05-14T11:48:39.279Z,1006.32
2023-05-14T11:49:39.272Z,1006.29
2023-05-14T11:50:39.257Z,1006.28
2023-05-14T11:51:39.252Z,1006.27
2023-05-14T11:52:39.233Z,1006.22
2023-05-14T11:53:39.270Z,1006.29
2023-05-14T11:54:39.230Z,1006.29
2023-05-14T11:55:39.211Z,1006.31
2023-05-14T11:56:39.199Z,1006.33
2023-05-14T11:57:39.199Z,1006.27
2023-05-14T11:58:39.189Z,1006.22
2023-05-14T11:59:39.196Z,1006.21
2023-05-14T12:00:39.165Z,1006.14
2023-05-14T12:01:39.160Z,1006.14
2023-05-14T12:02:39.255Z,1006.22
2023-05-14T12:03:39.225Z,1006.22
2023-05-14T12:04:39.194Z,1006.17
2023-05-14T12:05:39.154Z,1006.14